Orondo, Washington
Current Conditions -  °F | °C
As of 11:55 AM on Thursday 23 Oct 2014 (Local Time) from KEAT Reporting Station
Broken Clouds Broken Clouds  
Wind Chill: 54°   Ceiling: 4800
Heat Index: 54°   Visibility: 10mi
Dew Point: 44°   Wind: 10mph
Humidity: 69%   Direction: 300°WNW
Pressure: 29.79"   Gusts: NA
Location:  47.63°N, 120.22°W
Report Text: KEAT 231855Z AUTO 30009KT 10SM BKN048 12/07 A2979 RMK AO2 SLP089 T01220067
Loading
Personal Weather Stations






























Interactive Weather Map
Tropical Storm Tracking
New forecast layout! Learn more

10-Day Weather Forecast

Advertisements
Track Severe Weather on mobile